sensor_id;sensor_type;location;lat;lon;timestamp;temperature;humidity
63383;DHT22;49512;48.744;9.176;2022-07-15T00:01:42;19.40;45.70
63383;DHT22;49512;48.744;9.176;2022-07-15T00:04:08;19.20;46.00
63383;DHT22;49512;48.744;9.176;2022-07-15T00:06:35;19.30;45.40
63383;DHT22;49512;48.744;9.176;2022-07-15T00:09:01;19.20;48.30
63383;DHT22;49512;48.744;9.176;2022-07-15T00:11:26;19.10;46.70
63383;DHT22;49512;48.744;9.176;2022-07-15T00:13:52;19.10;46.70
63383;DHT22;49512;48.744;9.176;2022-07-15T00:16:17;19.00;47.90
63383;DHT22;49512;48.744;9.176;2022-07-15T00:18:43;19.00;48.30
63383;DHT22;49512;48.744;9.176;2022-07-15T00:21:08;18.90;49.00
63383;DHT22;49512;48.744;9.176;2022-07-15T00:23:34;18.80;49.10
63383;DHT22;49512;48.744;9.176;2022-07-15T00:26:00;18.80;50.20
63383;DHT22;49512;48.744;9.176;2022-07-15T00:28:26;18.70;50.60
63383;DHT22;49512;48.744;9.176;2022-07-15T00:30:53;18.70;50.20
63383;DHT22;49512;48.744;9.176;2022-07-15T00:33:18;18.70;50.00
63383;DHT22;49512;48.744;9.176;2022-07-15T00:35:44;18.50;52.60
63383;DHT22;49512;48.744;9.176;2022-07-15T00:38:09;18.50;51.10
63383;DHT22;49512;48.744;9.176;2022-07-15T00:40:38;18.40;51.70
63383;DHT22;49512;48.744;9.176;2022-07-15T00:43:04;18.40;52.10
63383;DHT22;49512;48.744;9.176;2022-07-15T00:45:30;18.30;52.20
63383;DHT22;49512;48.744;9.176;2022-07-15T00:47:56;18.30;52.50
63383;DHT22;49512;48.744;9.176;2022-07-15T00:50:22;18.30;52.20
63383;DHT22;49512;48.744;9.176;2022-07-15T00:52:50;18.20;53.40
63383;DHT22;49512;48.744;9.176;2022-07-15T00:55:17;18.20;53.60
63383;DHT22;49512;48.744;9.176;2022-07-15T00:57:44;18.10;53.50
63383;DHT22;49512;48.744;9.176;2022-07-15T01:00:10;18.10;53.40
63383;DHT22;49512;48.744;9.176;2022-07-15T01:02:37;18.10;53.50
63383;DHT22;49512;48.744;9.176;2022-07-15T01:05:03;18.20;53.40
63383;DHT22;49512;48.744;9.176;2022-07-15T01:07:29;18.00;54.50
63383;DHT22;49512;48.744;9.176;2022-07-15T01:09:55;18.00;54.60
63383;DHT22;49512;48.744;9.176;2022-07-15T01:12:20;18.00;54.00
63383;DHT22;49512;48.744;9.176;2022-07-15T01:14:46;18.00;54.20
63383;DHT22;49512;48.744;9.176;2022-07-15T01:17:11;18.10;53.10
63383;DHT22;49512;48.744;9.176;2022-07-15T01:19:37;18.10;53.70
63383;DHT22;49512;48.744;9.176;2022-07-15T01:22:03;18.00;54.30
63383;DHT22;49512;48.744;9.176;2022-07-15T01:24:29;17.90;54.90
63383;DHT22;49512;48.744;9.176;2022-07-15T01:26:54;17.90;54.80
63383;DHT22;49512;48.744;9.176;2022-07-15T01:29:20;17.70;55.80
63383;DHT22;49512;48.744;9.176;2022-07-15T01:31:45;17.70;55.00
63383;DHT22;49512;48.744;9.176;2022-07-15T01:34:11;17.60;56.50
63383;DHT22;49512;48.744;9.176;2022-07-15T01:36:36;17.70;55.90
63383;DHT22;49512;48.744;9.176;2022-07-15T01:39:02;17.70;55.40
63383;DHT22;49512;48.744;9.176;2022-07-15T01:41:28;17.70;56.10
63383;DHT22;49512;48.744;9.176;2022-07-15T01:43:54;17.50;56.90
63383;DHT22;49512;48.744;9.176;2022-07-15T01:46:19;17.50;56.80
63383;DHT22;49512;48.744;9.176;2022-07-15T01:48:45;17.40;57.70
63383;DHT22;49512;48.744;9.176;2022-07-15T01:51:29;17.40;57.30
63383;DHT22;49512;48.744;9.176;2022-07-15T01:53:54;17.40;57.70
63383;DHT22;49512;48.744;9.176;2022-07-15T01:56:20;17.20;58.50
63383;DHT22;49512;48.744;9.176;2022-07-15T01:58:45;17.00;59.90
63383;DHT22;49512;48.744;9.176;2022-07-15T02:01:11;16.70;61.80
63383;DHT22;49512;48.744;9.176;2022-07-15T02:03:37;16.80;61.30
63383;DHT22;49512;48.744;9.176;2022-07-15T02:06:02;16.70;62.20
63383;DHT22;49512;48.744;9.176;2022-07-15T02:08:28;16.60;62.80
63383;DHT22;49512;48.744;9.176;2022-07-15T02:10:53;16.50;62.40
63383;DHT22;49512;48.744;9.176;2022-07-15T02:13:19;16.60;62.40
63383;DHT22;49512;48.744;9.176;2022-07-15T02:15:44;16.60;62.50
63383;DHT22;49512;48.744;9.176;2022-07-15T02:18:10;16.50;63.40
63383;DHT22;49512;48.744;9.176;2022-07-15T02:20:36;16.40;64.30
63383;DHT22;49512;48.744;9.176;2022-07-15T02:23:01;16.40;64.80
63383;DHT22;49512;48.744;9.176;2022-07-15T02:25:28;16.30;64.00
63383;DHT22;49512;48.744;9.176;2022-07-15T02:27:58;16.30;65.00
63383;DHT22;49512;48.744;9.176;2022-07-15T02:30:24;16.30;64.90
63383;DHT22;49512;48.744;9.176;2022-07-15T02:32:50;16.20;65.20
63383;DHT22;49512;48.744;9.176;2022-07-15T02:35:16;16.20;64.70
63383;DHT22;49512;48.744;9.176;2022-07-15T02:37:42;16.20;65.10
63383;DHT22;49512;48.744;9.176;2022-07-15T02:40:08;16.10;66.80
63383;DHT22;49512;48.744;9.176;2022-07-15T02:42:34;16.10;65.70
63383;DHT22;49512;48.744;9.176;2022-07-15T02:44:59;16.00;66.00
63383;DHT22;49512;48.744;9.176;2022-07-15T02:47:25;16.10;66.20
63383;DHT22;49512;48.744;9.176;2022-07-15T02:49:50;16.10;65.90
63383;DHT22;49512;48.744;9.176;2022-07-15T02:52:16;16.00;67.10
63383;DHT22;49512;48.744;9.176;2022-07-15T02:54:41;15.90;66.90
63383;DHT22;49512;48.744;9.176;2022-07-15T02:57:06;16.10;66.70
63383;DHT22;49512;48.744;9.176;2022-07-15T02:59:32;16.00;65.60
63383;DHT22;49512;48.744;9.176;2022-07-15T03:01:58;16.00;66.10
63383;DHT22;49512;48.744;9.176;2022-07-15T03:04:24;16.00;65.80
63383;DHT22;49512;48.744;9.176;2022-07-15T03:06:49;15.90;66.70
63383;DHT22;49512;48.744;9.176;2022-07-15T03:09:15;15.80;64.90
63383;DHT22;49512;48.744;9.176;2022-07-15T03:11:40;16.00;65.10
63383;DHT22;49512;48.744;9.176;2022-07-15T03:14:06;16.00;65.00
63383;DHT22;49512;48.744;9.176;2022-07-15T03:16:31;16.00;64.80
63383;DHT22;49512;48.744;9.176;2022-07-15T03:18:57;16.00;65.70
63383;DHT22;49512;48.744;9.176;2022-07-15T03:21:22;16.00;65.30
63383;DHT22;49512;48.744;9.176;2022-07-15T03:23:48;15.90;64.80
63383;DHT22;49512;48.744;9.176;2022-07-15T03:26:13;15.90;65.20
63383;DHT22;49512;48.744;9.176;2022-07-15T03:28:39;15.90;64.80
63383;DHT22;49512;48.744;9.176;2022-07-15T03:31:04;15.90;65.20
63383;DHT22;49512;48.744;9.176;2022-07-15T03:33:30;15.80;64.50
63383;DHT22;49512;48.744;9.176;2022-07-15T03:35:55;15.80;65.50
63383;DHT22;49512;48.744;9.176;2022-07-15T03:38:21;15.70;66.00
63383;DHT22;49512;48.744;9.176;2022-07-15T03:40:46;15.80;65.30
63383;DHT22;49512;48.744;9.176;2022-07-15T03:43:12;15.60;67.50
63383;DHT22;49512;48.744;9.176;2022-07-15T03:45:39;15.70;66.30
63383;DHT22;49512;48.744;9.176;2022-07-15T03:48:04;15.70;65.90
63383;DHT22;49512;48.744;9.176;2022-07-15T03:50:30;15.80;65.50
63383;DHT22;49512;48.744;9.176;2022-07-15T03:52:56;15.70;65.70
63383;DHT22;49512;48.744;9.176;2022-07-15T03:55:21;15.80;66.40
63383;DHT22;49512;48.744;9.176;2022-07-15T03:57:47;16.00;65.30
63383;DHT22;49512;48.744;9.176;2022-07-15T04:00:12;16.00;65.50
63383;DHT22;49512;48.744;9.176;2022-07-15T04:02:38;15.90;65.00
63383;DHT22;49512;48.744;9.176;2022-07-15T04:05:04;16.10;66.40
63383;DHT22;49512;48.744;9.176;2022-07-15T04:07:30;16.00;62.80
63383;DHT22;49512;48.744;9.176;2022-07-15T04:09:55;16.10;62.90
63383;DHT22;49512;48.744;9.176;2022-07-15T04:12:21;16.10;62.40
63383;DHT22;49512;48.744;9.176;2022-07-15T04:14:46;16.10;62.70
63383;DHT22;49512;48.744;9.176;2022-07-15T04:17:12;16.10;63.30
63383;DHT22;49512;48.744;9.176;2022-07-15T04:19:38;16.30;64.10
63383;DHT22;49512;48.744;9.176;2022-07-15T04:22:04;16.40;64.30
63383;DHT22;49512;48.744;9.176;2022-07-15T04:24:30;16.40;62.40
63383;DHT22;49512;48.744;9.176;2022-07-15T04:26:56;16.40;62.10
63383;DHT22;49512;48.744;9.176;2022-07-15T04:29:21;16.40;62.20
63383;DHT22;49512;48.744;9.176;2022-07-15T04:31:47;16.60;62.90
63383;DHT22;49512;48.744;9.176;2022-07-15T04:34:12;17.30;63.90
63383;DHT22;49512;48.744;9.176;2022-07-15T04:36:38;19.10;55.30
63383;DHT22;49512;48.744;9.176;2022-07-15T04:39:04;20.40;50.20
63383;DHT22;49512;48.744;9.176;2022-07-15T04:41:30;21.90;43.80
63383;DHT22;49512;48.744;9.176;2022-07-15T04:43:55;22.60;37.90
63383;DHT22;49512;48.744;9.176;2022-07-15T04:46:21;22.90;42.10
63383;DHT22;49512;48.744;9.176;2022-07-15T04:48:46;23.10;42.60
63383;DHT22;49512;48.744;9.176;2022-07-15T04:51:30;23.80;36.50
63383;DHT22;49512;48.744;9.176;2022-07-15T04:53:56;23.80;35.50
63383;DHT22;49512;48.744;9.176;2022-07-15T04:56:21;23.60;37.70
63383;DHT22;49512;48.744;9.176;2022-07-15T04:58:47;24.20;35.00
63383;DHT22;49512;48.744;9.176;2022-07-15T05:01:12;24.00;39.50
63383;DHT22;49512;48.744;9.176;2022-07-15T05:03:38;24.70;33.40
63383;DHT22;49512;48.744;9.176;2022-07-15T05:06:03;24.90;33.20
63383;DHT22;49512;48.744;9.176;2022-07-15T05:08:29;25.00;32.30
63383;DHT22;49512;48.744;9.176;2022-07-15T05:10:55;25.70;31.00
63383;DHT22;49512;48.744;9.176;2022-07-15T05:13:20;25.30;31.10
63383;DHT22;49512;48.744;9.176;2022-07-15T05:15:46;25.80;32.20
63383;DHT22;49512;48.744;9.176;2022-07-15T05:18:11;25.90;31.10
63383;DHT22;49512;48.744;9.176;2022-07-15T05:20:37;25.70;33.20
63383;DHT22;49512;48.744;9.176;2022-07-15T05:23:02;26.20;29.40
63383;DHT22;49512;48.744;9.176;2022-07-15T05:25:29;26.20;28.30
63383;DHT22;49512;48.744;9.176;2022-07-15T05:27:54;25.90;28.20
63383;DHT22;49512;48.744;9.176;2022-07-15T05:30:20;25.80;29.50
63383;DHT22;49512;48.744;9.176;2022-07-15T05:32:45;25.80;30.10
63383;DHT22;49512;48.744;9.176;2022-07-15T05:35:15;25.80;29.50
63383;DHT22;49512;48.744;9.176;2022-07-15T05:37:40;25.50;28.90
63383;DHT22;49512;48.744;9.176;2022-07-15T05:40:06;24.60;28.90
63383;DHT22;49512;48.744;9.176;2022-07-15T05:42:32;24.70;28.20
63383;DHT22;49512;48.744;9.176;2022-07-15T05:44:58;24.10;28.30
63383;DHT22;49512;48.744;9.176;2022-07-15T05:47:23;23.70;28.30
63383;DHT22;49512;48.744;9.176;2022-07-15T05:49:49;23.60;30.70
63383;DHT22;49512;48.744;9.176;2022-07-15T05:52:14;24.00;29.30
63383;DHT22;49512;48.744;9.176;2022-07-15T05:54:40;24.00;30.60
63383;DHT22;49512;48.744;9.176;2022-07-15T05:57:05;24.20;27.80
63383;DHT22;49512;48.744;9.176;2022-07-15T05:59:31;23.60;28.00
63383;DHT22;49512;48.744;9.176;2022-07-15T06:01:57;23.70;28.10
63383;DHT22;49512;48.744;9.176;2022-07-15T06:04:23;23.70;30.00
63383;DHT22;49512;48.744;9.176;2022-07-15T06:06:52;24.20;28.20
63383;DHT22;49512;48.744;9.176;2022-07-15T06:09:18;24.80;28.20
63383;DHT22;49512;48.744;9.176;2022-07-15T06:11:43;24.90;27.50
63383;DHT22;49512;48.744;9.176;2022-07-15T06:14:09;25.30;27.80
63383;DHT22;49512;48.744;9.176;2022-07-15T06:16:35;26.30;25.80
63383;DHT22;49512;48.744;9.176;2022-07-15T06:19:00;26.00;25.50
63383;DHT22;49512;48.744;9.176;2022-07-15T06:21:26;24.80;27.70
63383;DHT22;49512;48.744;9.176;2022-07-15T06:23:51;25.60;26.70
63383;DHT22;49512;48.744;9.176;2022-07-15T06:26:17;26.30;26.90
63383;DHT22;49512;48.744;9.176;2022-07-15T06:28:42;26.40;26.60
63383;DHT22;49512;48.744;9.176;2022-07-15T06:31:08;25.70;24.70
63383;DHT22;49512;48.744;9.176;2022-07-15T06:33:33;25.50;25.30
63383;DHT22;49512;48.744;9.176;2022-07-15T06:35:59;26.30;26.30
63383;DHT22;49512;48.744;9.176;2022-07-15T06:38:24;26.60;24.40
63383;DHT22;49512;48.744;9.176;2022-07-15T06:40:50;26.60;24.90
63383;DHT22;49512;48.744;9.176;2022-07-15T06:43:15;26.60;24.00
63383;DHT22;49512;48.744;9.176;2022-07-15T06:45:41;26.40;25.20
63383;DHT22;49512;48.744;9.176;2022-07-15T06:48:06;25.30;26.20
63383;DHT22;49512;48.744;9.176;2022-07-15T06:50:32;25.00;24.90
63383;DHT22;49512;48.744;9.176;2022-07-15T06:52:57;25.60;24.70
63383;DHT22;49512;48.744;9.176;2022-07-15T06:55:23;25.00;25.80
63383;DHT22;49512;48.744;9.176;2022-07-15T06:57:48;26.30;25.20
63383;DHT22;49512;48.744;9.176;2022-07-15T07:00:14;25.70;25.40
63383;DHT22;49512;48.744;9.176;2022-07-15T07:02:41;25.40;27.60
63383;DHT22;49512;48.744;9.176;2022-07-15T07:05:07;25.00;27.00
63383;DHT22;49512;48.744;9.176;2022-07-15T07:07:33;24.50;26.30
63383;DHT22;49512;48.744;9.176;2022-07-15T07:09:59;24.10;27.40
63383;DHT22;49512;48.744;9.176;2022-07-15T07:12:24;23.60;28.00
63383;DHT22;49512;48.744;9.176;2022-07-15T07:14:50;24.20;26.80
63383;DHT22;49512;48.744;9.176;2022-07-15T07:17:15;24.40;28.40
63383;DHT22;49512;48.744;9.176;2022-07-15T07:19:41;24.60;28.60
63383;DHT22;49512;48.744;9.176;2022-07-15T07:22:06;24.30;25.70
63383;DHT22;49512;48.744;9.176;2022-07-15T07:24:32;23.70;27.40
63383;DHT22;49512;48.744;9.176;2022-07-15T07:26:57;23.20;28.30
63383;DHT22;49512;48.744;9.176;2022-07-15T07:29:23;22.90;30.00
63383;DHT22;49512;48.744;9.176;2022-07-15T07:31:49;22.70;30.70
63383;DHT22;49512;48.744;9.176;2022-07-15T07:34:15;22.70;30.50
63383;DHT22;49512;48.744;9.176;2022-07-15T07:36:41;23.40;30.60
63383;DHT22;49512;48.744;9.176;2022-07-15T07:39:06;23.70;31.00
63383;DHT22;49512;48.744;9.176;2022-07-15T07:41:32;23.80;29.80
63383;DHT22;49512;48.744;9.176;2022-07-15T07:43:57;23.70;28.90
63383;DHT22;49512;48.744;9.176;2022-07-15T07:46:23;24.00;28.80
63383;DHT22;49512;48.744;9.176;2022-07-15T07:48:49;23.80;29.20
63383;DHT22;49512;48.744;9.176;2022-07-15T07:51:14;24.20;28.20
63383;DHT22;49512;48.744;9.176;2022-07-15T07:53:41;23.90;27.70
63383;DHT22;49512;48.744;9.176;2022-07-15T07:56:07;23.70;28.80
63383;DHT22;49512;48.744;9.176;2022-07-15T07:58:33;23.00;28.70
63383;DHT22;49512;48.744;9.176;2022-07-15T08:00:59;22.90;29.90
63383;DHT22;49512;48.744;9.176;2022-07-15T08:03:24;22.60;28.20
63383;DHT22;49512;48.744;9.176;2022-07-15T08:05:50;23.00;29.80
63383;DHT22;49512;48.744;9.176;2022-07-15T08:08:17;23.30;32.00
63383;DHT22;49512;48.744;9.176;2022-07-15T08:10:44;23.60;30.40
63383;DHT22;49512;48.744;9.176;2022-07-15T08:13:10;23.60;29.50
63383;DHT22;49512;48.744;9.176;2022-07-15T08:15:35;23.60;28.80
63383;DHT22;49512;48.744;9.176;2022-07-15T08:18:01;23.40;29.40
63383;DHT22;49512;48.744;9.176;2022-07-15T08:20:27;23.70;32.00
63383;DHT22;49512;48.744;9.176;2022-07-15T08:22:52;24.10;31.60
63383;DHT22;49512;48.744;9.176;2022-07-15T08:25:27;24.50;29.80
63383;DHT22;49512;48.744;9.176;2022-07-15T08:27:53;23.50;30.80
63383;DHT22;49512;48.744;9.176;2022-07-15T08:30:19;23.90;29.40
63383;DHT22;49512;48.744;9.176;2022-07-15T08:32:44;23.50;30.00
63383;DHT22;49512;48.744;9.176;2022-07-15T08:35:10;24.20;33.40
63383;DHT22;49512;48.744;9.176;2022-07-15T08:37:35;24.60;30.50
63383;DHT22;49512;48.744;9.176;2022-07-15T08:40:02;24.70;31.40
63383;DHT22;49512;48.744;9.176;2022-07-15T08:42:28;25.10;31.80
63383;DHT22;49512;48.744;9.176;2022-07-15T08:44:53;25.30;29.70
63383;DHT22;49512;48.744;9.176;2022-07-15T08:47:19;25.60;28.90
63383;DHT22;49512;48.744;9.176;2022-07-15T08:49:44;25.40;30.00
63383;DHT22;49512;48.744;9.176;2022-07-15T08:52:12;24.80;27.70
63383;DHT22;49512;48.744;9.176;2022-07-15T08:54:39;24.60;28.00
63383;DHT22;49512;48.744;9.176;2022-07-15T08:57:04;24.70;29.60
63383;DHT22;49512;48.744;9.176;2022-07-15T08:59:30;24.10;29.40
63383;DHT22;49512;48.744;9.176;2022-07-15T09:01:55;24.80;29.40
63383;DHT22;49512;48.744;9.176;2022-07-15T09:04:21;25.20;27.70
63383;DHT22;49512;48.744;9.176;2022-07-15T09:06:48;24.60;27.80
63383;DHT22;49512;48.744;9.176;2022-07-15T09:09:23;24.00;28.90
63383;DHT22;49512;48.744;9.176;2022-07-15T09:14:27;24.80;28.40
63383;DHT22;49512;48.744;9.176;2022-07-15T09:17:04;24.50;28.70
63383;DHT22;49512;48.744;9.176;2022-07-15T09:19:31;24.10;29.20
63383;DHT22;49512;48.744;9.176;2022-07-15T09:22:15;23.70;29.00
63383;DHT22;49512;48.744;9.176;2022-07-15T09:24:40;24.00;28.20
63383;DHT22;49512;48.744;9.176;2022-07-15T09:27:27;24.00;29.20
63383;DHT22;49512;48.744;9.176;2022-07-15T09:29:53;23.60;30.90
63383;DHT22;49512;48.744;9.176;2022-07-15T09:32:47;24.40;34.40
63383;DHT22;49512;48.744;9.176;2022-07-15T09:35:36;24.70;28.00
63383;DHT22;49512;48.744;9.176;2022-07-15T09:38:23;24.70;31.20
63383;DHT22;49512;48.744;9.176;2022-07-15T09:40:48;25.30;29.10
63383;DHT22;49512;48.744;9.176;2022-07-15T09:43:14;25.10;27.50
63383;DHT22;49512;48.744;9.176;2022-07-15T09:45:39;24.20;28.20
63383;DHT22;49512;48.744;9.176;2022-07-15T09:48:09;24.20;28.20
63383;DHT22;49512;48.744;9.176;2022-07-15T09:50:36;23.90;28.80
63383;DHT22;49512;48.744;9.176;2022-07-15T09:53:05;23.90;31.30
63383;DHT22;49512;48.744;9.176;2022-07-15T09:55:35;23.40;30.90
63383;DHT22;49512;48.744;9.176;2022-07-15T09:58:03;23.50;31.30
63383;DHT22;49512;48.744;9.176;2022-07-15T10:00:30;24.00;28.90
63383;DHT22;49512;48.744;9.176;2022-07-15T10:02:55;24.50;28.50
63383;DHT22;49512;48.744;9.176;2022-07-15T10:05:21;24.40;29.30
63383;DHT22;49512;48.744;9.176;2022-07-15T10:07:47;24.50;28.70
63383;DHT22;49512;48.744;9.176;2022-07-15T10:10:13;25.00;31.40
63383;DHT22;49512;48.744;9.176;2022-07-15T10:12:57;25.00;27.90
63383;DHT22;49512;48.744;9.176;2022-07-15T10:15:37;25.60;29.60
63383;DHT22;49512;48.744;9.176;2022-07-15T10:33:38;24.80;27.70
63383;DHT22;49512;48.744;9.176;2022-07-15T10:36:04;24.30;28.90
63383;DHT22;49512;48.744;9.176;2022-07-15T10:38:37;24.30;29.10
63383;DHT22;49512;48.744;9.176;2022-07-15T10:46:03;24.40;28.20
63383;DHT22;49512;48.744;9.176;2022-07-15T10:48:29;24.70;29.10
63383;DHT22;49512;48.744;9.176;2022-07-15T10:50:56;24.60;28.40
63383;DHT22;49512;48.744;9.176;2022-07-15T10:53:23;24.20;28.00
63383;DHT22;49512;48.744;9.176;2022-07-15T10:55:49;24.60;28.50
63383;DHT22;49512;48.744;9.176;2022-07-15T10:58:15;25.10;29.50
63383;DHT22;49512;48.744;9.176;2022-07-15T11:00:42;25.30;29.00
63383;DHT22;49512;48.744;9.176;2022-07-15T11:05:35;25.50;27.00
63383;DHT22;49512;48.744;9.176;2022-07-15T11:10:51;24.50;28.20
63383;DHT22;49512;48.744;9.176;2022-07-15T11:13:16;24.70;28.60
63383;DHT22;49512;48.744;9.176;2022-07-15T11:15:57;24.90;32.00
63383;DHT22;49512;48.744;9.176;2022-07-15T11:18:23;25.60;30.00
63383;DHT22;49512;48.744;9.176;2022-07-15T11:20:48;25.60;27.00
63383;DHT22;49512;48.744;9.176;2022-07-15T11:23:14;25.50;27.50
63383;DHT22;49512;48.744;9.176;2022-07-15T11:25:40;25.20;28.10
63383;DHT22;49512;48.744;9.176;2022-07-15T11:28:13;25.10;27.70
63383;DHT22;49512;48.744;9.176;2022-07-15T11:33:11;24.80;29.10
63383;DHT22;49512;48.744;9.176;2022-07-15T11:35:50;24.70;27.30
63383;DHT22;49512;48.744;9.176;2022-07-15T11:38:17;24.60;28.00
63383;DHT22;49512;48.744;9.176;2022-07-15T11:40:44;24.20;28.20
63383;DHT22;49512;48.744;9.176;2022-07-15T11:43:28;24.00;28.50
63383;DHT22;49512;48.744;9.176;2022-07-15T11:46:13;24.00;29.60
63383;DHT22;49512;48.744;9.176;2022-07-15T11:48:38;24.30;28.90
63383;DHT22;49512;48.744;9.176;2022-07-15T11:51:05;24.70;27.80
63383;DHT22;49512;48.744;9.176;2022-07-15T11:53:37;24.40;28.40
63383;DHT22;49512;48.744;9.176;2022-07-15T11:56:03;24.10;28.60
63383;DHT22;49512;48.744;9.176;2022-07-15T11:58:33;24.70;28.50
63383;DHT22;49512;48.744;9.176;2022-07-15T12:01:00;24.90;30.00
63383;DHT22;49512;48.744;9.176;2022-07-15T12:03:30;25.10;29.70
63383;DHT22;49512;48.744;9.176;2022-07-15T12:06:02;25.00;28.80
63383;DHT22;49512;48.744;9.176;2022-07-15T12:08:32;24.80;29.40
63383;DHT22;49512;48.744;9.176;2022-07-15T12:10:58;24.80;30.90
63383;DHT22;49512;48.744;9.176;2022-07-15T12:13:24;24.40;28.30
63383;DHT22;49512;48.744;9.176;2022-07-15T12:15:50;24.20;28.70
63383;DHT22;49512;48.744;9.176;2022-07-15T12:18:15;24.30;29.40
63383;DHT22;49512;48.744;9.176;2022-07-15T12:20:41;24.40;28.90
63383;DHT22;49512;48.744;9.176;2022-07-15T12:23:08;24.60;30.40
63383;DHT22;49512;48.744;9.176;2022-07-15T12:25:34;25.20;29.40
63383;DHT22;49512;48.744;9.176;2022-07-15T12:27:59;24.90;28.40
63383;DHT22;49512;48.744;9.176;2022-07-15T12:30:33;25.40;29.70
63383;DHT22;49512;48.744;9.176;2022-07-15T12:35:39;25.00;28.00
63383;DHT22;49512;48.744;9.176;2022-07-15T12:38:05;25.10;28.90
63383;DHT22;49512;48.744;9.176;2022-07-15T12:40:30;24.90;28.40
63383;DHT22;49512;48.744;9.176;2022-07-15T12:42:56;25.00;28.40
63383;DHT22;49512;48.744;9.176;2022-07-15T12:45:25;24.90;28.40
63383;DHT22;49512;48.744;9.176;2022-07-15T12:48:06;24.60;29.40
63383;DHT22;49512;48.744;9.176;2022-07-15T12:50:34;24.70;28.70
63383;DHT22;49512;48.744;9.176;2022-07-15T12:52:59;24.80;28.40
63383;DHT22;49512;48.744;9.176;2022-07-15T12:55:29;24.70;28.70
63383;DHT22;49512;48.744;9.176;2022-07-15T12:58:05;24.80;28.90
63383;DHT22;49512;48.744;9.176;2022-07-15T13:00:31;25.00;28.80
63383;DHT22;49512;48.744;9.176;2022-07-15T13:03:04;25.30;28.50
63383;DHT22;49512;48.744;9.176;2022-07-15T13:08:06;25.00;27.70
63383;DHT22;49512;48.744;9.176;2022-07-15T13:10:31;24.60;28.90
63383;DHT22;49512;48.744;9.176;2022-07-15T13:12:57;24.90;28.70
63383;DHT22;49512;48.744;9.176;2022-07-15T13:15:23;25.20;28.50
63383;DHT22;49512;48.744;9.176;2022-07-15T13:17:48;25.20;28.50
63383;DHT22;49512;48.744;9.176;2022-07-15T13:20:14;25.20;28.50
63383;DHT22;49512;48.744;9.176;2022-07-15T13:22:40;25.40;29.00
63383;DHT22;49512;48.744;9.176;2022-07-15T13:25:05;25.60;28.40
63383;DHT22;49512;48.744;9.176;2022-07-15T13:27:31;25.40;28.20
63383;DHT22;49512;48.744;9.176;2022-07-15T13:29:57;24.80;28.30
63383;DHT22;49512;48.744;9.176;2022-07-15T13:32:22;24.80;29.20
63383;DHT22;49512;48.744;9.176;2022-07-15T13:34:48;24.60;29.90
63383;DHT22;49512;48.744;9.176;2022-07-15T13:37:13;24.80;30.90
63383;DHT22;49512;48.744;9.176;2022-07-15T13:39:39;24.90;28.80
63383;DHT22;49512;48.744;9.176;2022-07-15T13:42:04;25.00;30.00
63383;DHT22;49512;48.744;9.176;2022-07-15T13:44:30;25.10;30.20
63383;DHT22;49512;48.744;9.176;2022-07-15T13:46:55;25.30;28.40
63383;DHT22;49512;48.744;9.176;2022-07-15T13:49:21;25.30;30.60
63383;DHT22;49512;48.744;9.176;2022-07-15T13:52:10;25.30;30.00
63383;DHT22;49512;48.744;9.176;2022-07-15T13:54:35;25.40;29.20
63383;DHT22;49512;48.744;9.176;2022-07-15T13:57:01;25.30;29.10
63383;DHT22;49512;48.744;9.176;2022-07-15T13:59:27;25.40;28.50
63383;DHT22;49512;48.744;9.176;2022-07-15T14:01:52;25.60;28.80
63383;DHT22;49512;48.744;9.176;2022-07-15T14:04:19;25.60;28.00
63383;DHT22;49512;48.744;9.176;2022-07-15T14:06:44;25.70;28.20
63383;DHT22;49512;48.744;9.176;2022-07-15T14:09:10;25.70;27.50
63383;DHT22;49512;48.744;9.176;2022-07-15T14:11:36;25.80;29.10
63383;DHT22;49512;48.744;9.176;2022-07-15T14:14:01;26.50;28.20
63383;DHT22;49512;48.744;9.176;2022-07-15T14:16:27;25.90;27.90
63383;DHT22;49512;48.744;9.176;2022-07-15T14:18:53;25.80;28.00
63383;DHT22;49512;48.744;9.176;2022-07-15T14:21:18;26.10;28.20
63383;DHT22;49512;48.744;9.176;2022-07-15T14:23:44;25.40;27.50
63383;DHT22;49512;48.744;9.176;2022-07-15T14:26:10;25.70;28.50
63383;DHT22;49512;48.744;9.176;2022-07-15T14:28:36;25.60;27.80
63383;DHT22;49512;48.744;9.176;2022-07-15T14:31:02;25.50;28.10
63383;DHT22;49512;48.744;9.176;2022-07-15T14:33:27;25.30;28.50
63383;DHT22;49512;48.744;9.176;2022-07-15T14:35:53;25.50;28.80
63383;DHT22;49512;48.744;9.176;2022-07-15T14:38:18;25.30;28.10
63383;DHT22;49512;48.744;9.176;2022-07-15T14:40:44;25.20;28.60
63383;DHT22;49512;48.744;9.176;2022-07-15T14:43:09;25.20;28.90
63383;DHT22;49512;48.744;9.176;2022-07-15T14:45:35;25.20;29.50
63383;DHT22;49512;48.744;9.176;2022-07-15T14:48:00;25.10;29.70
63383;DHT22;49512;48.744;9.176;2022-07-15T14:50:26;25.30;29.00
63383;DHT22;49512;48.744;9.176;2022-07-15T14:52:51;25.20;28.90
63383;DHT22;49512;48.744;9.176;2022-07-15T14:55:17;25.20;28.80
63383;DHT22;49512;48.744;9.176;2022-07-15T14:57:42;25.00;29.30
63383;DHT22;49512;48.744;9.176;2022-07-15T15:00:08;25.00;28.70
63383;DHT22;49512;48.744;9.176;2022-07-15T15:02:34;25.00;29.00
63383;DHT22;49512;48.744;9.176;2022-07-15T15:04:59;24.80;28.40
63383;DHT22;49512;48.744;9.176;2022-07-15T15:07:25;24.90;29.40
63383;DHT22;49512;48.744;9.176;2022-07-15T15:09:50;25.00;28.80
63383;DHT22;49512;48.744;9.176;2022-07-15T15:12:16;24.90;28.70
63383;DHT22;49512;48.744;9.176;2022-07-15T15:14:41;24.60;28.80
63383;DHT22;49512;48.744;9.176;2022-07-15T15:17:07;24.70;29.20
63383;DHT22;49512;48.744;9.176;2022-07-15T15:19:32;24.40;28.50
63383;DHT22;49512;48.744;9.176;2022-07-15T15:21:58;24.20;29.80
63383;DHT22;49512;48.744;9.176;2022-07-15T15:24:23;24.40;29.40
63383;DHT22;49512;48.744;9.176;2022-07-15T15:26:49;24.60;29.20
63383;DHT22;49512;48.744;9.176;2022-07-15T15:29:17;24.60;29.10
63383;DHT22;49512;48.744;9.176;2022-07-15T15:31:43;24.40;28.80
63383;DHT22;49512;48.744;9.176;2022-07-15T15:34:09;24.40;29.40
63383;DHT22;49512;48.744;9.176;2022-07-15T15:36:34;24.40;29.00
63383;DHT22;49512;48.744;9.176;2022-07-15T15:39:00;24.10;29.30
63383;DHT22;49512;48.744;9.176;2022-07-15T15:41:25;24.00;29.40
63383;DHT22;49512;48.744;9.176;2022-07-15T15:43:53;23.80;29.30
63383;DHT22;49512;48.744;9.176;2022-07-15T15:46:18;23.90;29.30
63383;DHT22;49512;48.744;9.176;2022-07-15T15:48:44;23.90;29.10
63383;DHT22;49512;48.744;9.176;2022-07-15T19:40:14;19.90;37.90
63383;DHT22;49512;48.744;9.176;2022-07-15T19:42:40;20.00;38.40
63383;DHT22;49512;48.744;9.176;2022-07-15T19:45:06;20.10;38.30
63383;DHT22;49512;48.744;9.176;2022-07-15T19:47:33;20.10;37.50
63383;DHT22;49512;48.744;9.176;2022-07-15T19:49:59;20.10;37.70
63383;DHT22;49512;48.744;9.176;2022-07-15T19:52:24;20.10;37.80